createdAt,value
2022-10-21T00:01:41.890Z,13.70
2022-10-21T00:04:08.662Z,13.70
2022-10-21T00:06:35.353Z,13.80
2022-10-21T00:09:02.128Z,13.80
2022-10-21T00:11:28.841Z,13.90
2022-10-21T00:13:55.504Z,13.90
2022-10-21T00:16:22.217Z,13.90
2022-10-21T00:18:49.623Z,14.00
2022-10-21T00:21:20.906Z,13.90
2022-10-21T00:23:48.386Z,13.80
2022-10-21T00:26:16.885Z,13.90
2022-10-21T00:28:43.630Z,13.70
2022-10-21T00:31:14.201Z,13.80
2022-10-21T00:33:41.603Z,13.70
2022-10-21T00:36:14.704Z,13.70
2022-10-21T00:38:43.581Z,13.70
2022-10-21T00:41:10.805Z,13.70
2022-10-21T00:44:04.791Z,13.70
2022-10-21T00:46:34.981Z,13.60
2022-10-21T00:49:06.539Z,13.60
2022-10-21T00:51:33.336Z,13.40
2022-10-21T00:54:02.119Z,13.40
2022-10-21T00:56:31.400Z,13.50
2022-10-21T00:59:00.594Z,13.50
2022-10-21T01:01:27.760Z,13.50
2022-10-21T01:03:54.653Z,13.30
2022-10-21T01:06:24.366Z,13.20
2022-10-21T01:08:54.442Z,13.20
2022-10-21T01:11:23.022Z,13.20
2022-10-21T01:13:59.077Z,13.30
2022-10-21T01:16:48.010Z,13.20
2022-10-21T01:19:43.970Z,13.30
2022-10-21T01:22:49.237Z,13.40
2022-10-21T01:25:34.573Z,13.50
2022-10-21T01:28:01.284Z,13.40
2022-10-21T01:30:36.924Z,13.30
2022-10-21T01:33:47.167Z,13.30
2022-10-21T01:36:30.761Z,13.40
2022-10-21T01:39:07.345Z,13.40
2022-10-21T01:41:41.229Z,13.40
2022-10-21T01:44:21.645Z,13.40
2022-10-21T01:47:00.419Z,13.30
2022-10-21T01:49:41.195Z,13.40
2022-10-21T01:52:08.161Z,13.30
2022-10-21T01:54:48.574Z,13.10
2022-10-21T01:57:18.492Z,13.20
2022-10-21T01:59:47.177Z,13.20
2022-10-21T02:02:16.144Z,13.20
2022-10-21T02:04:45.354Z,13.10
2022-10-21T02:07:12.056Z,13.00
2022-10-21T02:09:38.767Z,13.10
2022-10-21T02:12:06.411Z,13.20
2022-10-21T02:14:38.786Z,13.20
2022-10-21T02:17:06.802Z,13.30
2022-10-21T02:19:33.567Z,13.40
2022-10-21T02:22:03.363Z,13.40
2022-10-21T02:24:52.262Z,13.50
2022-10-21T02:27:19.950Z,13.50
2022-10-21T02:29:49.580Z,13.50
2022-10-21T02:32:57.024Z,13.40
2022-10-21T02:35:45.573Z,13.40
2022-10-21T02:38:28.905Z,13.40
2022-10-21T02:41:04.379Z,13.50
2022-10-21T02:43:35.668Z,13.40
2022-10-21T02:46:08.408Z,13.20
2022-10-21T02:48:36.852Z,13.20
2022-10-21T02:51:05.985Z,13.20
2022-10-21T02:53:33.325Z,13.20
2022-10-21T02:56:00.050Z,13.30
2022-10-21T02:58:26.810Z,13.30
2022-10-21T03:00:53.682Z,13.40
2022-10-21T03:03:20.805Z,13.40
2022-10-21T03:05:47.854Z,13.50
2022-10-21T03:08:14.619Z,13.50
2022-10-21T03:10:41.390Z,13.50
2022-10-21T03:13:08.188Z,13.60
2022-10-21T03:15:34.950Z,13.60
2022-10-21T03:18:01.679Z,13.60
2022-10-21T03:20:28.394Z,13.60
2022-10-21T03:22:55.087Z,13.50
2022-10-21T03:25:21.750Z,13.40
2022-10-21T03:27:50.695Z,13.30
2022-10-21T03:30:17.571Z,13.40
2022-10-21T03:32:44.261Z,13.40
2022-10-21T03:35:11.044Z,13.40
2022-10-21T03:37:37.861Z,13.40
2022-10-21T03:40:08.614Z,13.40
2022-10-21T03:42:38.361Z,13.50
2022-10-21T03:45:05.700Z,13.50
2022-10-21T03:47:32.410Z,13.50
2022-10-21T03:49:59.136Z,13.50
2022-10-21T03:52:25.863Z,13.30
2022-10-21T03:54:52.569Z,13.40
2022-10-21T03:57:19.273Z,13.50
2022-10-21T03:59:45.937Z,13.60
2022-10-21T04:02:12.699Z,13.60
2022-10-21T04:04:39.400Z,13.50
2022-10-21T04:07:06.098Z,13.50
2022-10-21T04:09:32.791Z,13.40
2022-10-21T04:11:59.495Z,13.60
2022-10-21T04:14:26.241Z,13.60
2022-10-21T04:17:02.054Z,13.50
2022-10-21T04:19:29.293Z,13.60
2022-10-21T04:21:55.976Z,13.60
2022-10-21T04:24:22.648Z,13.60
2022-10-21T04:26:49.370Z,13.60
2022-10-21T04:29:16.092Z,13.60
2022-10-21T04:31:42.818Z,13.60
2022-10-21T04:34:09.580Z,13.60
2022-10-21T04:36:36.351Z,13.60
2022-10-21T04:39:04.197Z,13.60
2022-10-21T04:41:30.922Z,13.60
2022-10-21T04:43:57.619Z,13.60
2022-10-21T04:46:24.365Z,13.70
2022-10-21T04:48:51.173Z,13.70
2022-10-21T04:51:17.949Z,13.80
2022-10-21T04:53:44.672Z,13.80
2022-10-21T04:56:11.753Z,13.70
2022-10-21T04:58:38.732Z,13.60
2022-10-21T05:01:05.692Z,13.50
2022-10-21T05:03:32.426Z,13.60
2022-10-21T05:05:59.132Z,13.50
2022-10-21T05:08:25.810Z,13.50
2022-10-21T05:11:00.440Z,13.70
2022-10-21T05:13:28.228Z,13.70
2022-10-21T05:16:01.980Z,13.60
2022-10-21T05:18:29.306Z,13.60
2022-10-21T05:20:56.797Z,13.60
2022-10-21T05:23:24.678Z,13.70
2022-10-21T05:25:51.901Z,13.80
2022-10-21T05:28:19.741Z,13.70
2022-10-21T05:30:46.683Z,13.70
2022-10-21T05:33:14.066Z,13.60
2022-10-21T05:35:40.840Z,13.60
2022-10-21T05:38:07.579Z,13.60
2022-10-21T05:40:34.405Z,13.60
2022-10-21T05:43:01.580Z,13.60
2022-10-21T05:45:28.314Z,13.60
2022-10-21T05:47:55.063Z,13.70
2022-10-21T05:50:21.925Z,13.70
2022-10-21T05:52:48.631Z,13.70
2022-10-21T05:55:15.367Z,13.80
2022-10-21T05:57:42.181Z,13.80
2022-10-21T06:00:09.677Z,13.80
2022-10-21T06:02:36.711Z,13.90
2022-10-21T06:05:03.877Z,13.70
2022-10-21T06:07:30.717Z,13.60
2022-10-21T06:09:57.399Z,13.60
2022-10-21T06:12:24.103Z,13.60
2022-10-21T06:14:50.803Z,13.60
2022-10-21T06:17:17.522Z,13.70
2022-10-21T06:19:47.275Z,13.70
2022-10-21T06:22:16.929Z,13.80
2022-10-21T06:24:43.667Z,13.80
2022-10-21T06:27:10.498Z,13.70
2022-10-21T06:29:37.314Z,13.60
2022-10-21T06:32:04.224Z,13.50
2022-10-21T06:34:31.459Z,13.50
2022-10-21T06:36:58.159Z,13.40
2022-10-21T06:39:24.863Z,13.40
2022-10-21T06:41:51.561Z,13.50
2022-10-21T06:44:38.233Z,13.60
2022-10-21T06:47:04.956Z,13.60
2022-10-21T06:49:31.851Z,13.70
2022-10-21T06:51:58.631Z,13.70
2022-10-21T06:54:25.419Z,13.80
2022-10-21T06:56:52.185Z,13.80
2022-10-21T06:59:18.910Z,13.80
2022-10-21T07:01:59.695Z,13.70
2022-10-21T07:04:27.795Z,13.60
2022-10-21T07:06:54.689Z,13.50
2022-10-21T07:09:21.579Z,13.60
2022-10-21T07:11:48.360Z,13.70
2022-10-21T07:14:15.050Z,13.70
2022-10-21T07:16:42.028Z,13.60
2022-10-21T07:19:10.376Z,13.70
2022-10-21T07:21:39.369Z,13.80
2022-10-21T07:24:08.138Z,13.80
2022-10-21T07:26:36.832Z,13.90
2022-10-21T07:29:05.182Z,13.90
2022-10-21T07:31:36.343Z,13.90
2022-10-21T07:34:06.440Z,13.90
2022-10-21T07:36:37.385Z,13.80
2022-10-21T07:39:10.335Z,13.70
2022-10-21T07:41:44.521Z,13.70
2022-10-21T07:44:12.832Z,13.80
2022-10-21T07:46:43.160Z,13.70
2022-10-21T07:49:12.157Z,13.80
2022-10-21T07:51:40.346Z,13.90
2022-10-21T07:54:08.759Z,14.00
2022-10-21T07:56:39.590Z,14.00
2022-10-21T07:59:11.679Z,14.00
2022-10-21T08:01:44.011Z,14.00
2022-10-21T08:04:11.693Z,14.00
2022-10-21T08:06:40.349Z,13.70
2022-10-21T08:09:07.383Z,13.70
2022-10-21T08:11:34.779Z,13.70
2022-10-21T08:14:03.103Z,13.90
2022-10-21T08:16:29.844Z,14.10
2022-10-21T08:18:58.995Z,14.10
2022-10-21T08:21:25.683Z,14.10
2022-10-21T08:23:52.495Z,14.10
2022-10-21T08:26:19.710Z,14.20
2022-10-21T08:28:46.590Z,14.20
2022-10-21T08:31:16.546Z,14.20
2022-10-21T08:33:44.509Z,14.20
2022-10-21T08:36:16.778Z,14.30
2022-10-21T08:38:44.089Z,14.40
2022-10-21T08:41:35.554Z,14.40
2022-10-21T08:44:07.202Z,14.40
2022-10-21T08:46:38.945Z,14.60
2022-10-21T08:49:25.057Z,14.70
2022-10-21T08:52:05.886Z,14.70
2022-10-21T08:54:59.335Z,14.80
2022-10-21T08:57:26.415Z,14.90
2022-10-21T08:59:53.715Z,14.80
2022-10-21T09:02:43.565Z,14.70
2022-10-21T09:05:52.171Z,14.80
2022-10-21T09:08:30.499Z,14.80
2022-10-21T09:11:04.781Z,14.80
2022-10-21T09:13:42.323Z,14.80
2022-10-21T09:16:27.054Z,14.80
2022-10-21T09:19:24.902Z,14.80
2022-10-21T09:22:33.752Z,14.90
2022-10-21T09:25:16.978Z,15.00
2022-10-21T09:27:55.579Z,15.00
2022-10-21T09:30:23.524Z,15.00
2022-10-21T09:33:01.538Z,15.00
2022-10-21T09:35:37.738Z,15.00
2022-10-21T09:38:27.550Z,15.10
2022-10-21T09:41:01.362Z,15.00
2022-10-21T09:43:28.589Z,15.10
2022-10-21T09:45:56.015Z,15.20
2022-10-21T09:48:39.235Z,15.20
2022-10-21T09:51:19.394Z,15.20
2022-10-21T09:53:54.123Z,15.20
2022-10-21T09:56:28.644Z,15.20
2022-10-21T09:59:08.540Z,15.10
2022-10-21T10:01:36.872Z,15.10
2022-10-21T10:04:12.883Z,15.00
2022-10-21T10:06:44.469Z,14.90
2022-10-21T10:09:31.738Z,14.90
2022-10-21T10:12:05.607Z,14.80
2022-10-21T10:14:33.853Z,14.80
2022-10-21T10:17:21.035Z,14.70
2022-10-21T10:20:08.507Z,14.60
2022-10-21T10:22:37.716Z,14.60
2022-10-21T10:25:24.236Z,14.50
2022-10-21T10:27:59.271Z,14.50
2022-10-21T10:30:42.647Z,14.30
2022-10-21T10:33:22.851Z,14.30
2022-10-21T10:35:55.862Z,14.10
2022-10-21T10:38:42.481Z,14.20
2022-10-21T10:41:12.229Z,14.20
2022-10-21T10:43:54.199Z,14.30
2022-10-21T10:46:32.410Z,14.30
2022-10-21T10:49:24.701Z,14.30
2022-10-21T10:52:04.379Z,14.30
2022-10-21T10:54:31.149Z,14.50
2022-10-21T10:57:02.226Z,14.30
2022-10-21T10:59:49.756Z,14.40
2022-10-21T11:02:25.956Z,14.50
2022-10-21T11:05:26.346Z,14.60
2022-10-21T11:07:55.928Z,14.60
2022-10-21T11:10:41.961Z,14.50
2022-10-21T11:13:20.549Z,14.50
2022-10-21T11:16:05.834Z,14.40
2022-10-21T11:18:49.622Z,14.50
2022-10-21T11:21:25.833Z,14.60
2022-10-21T11:23:58.198Z,14.70
2022-10-21T11:26:45.893Z,14.60
2022-10-21T11:29:38.837Z,14.60
2022-10-21T11:32:12.870Z,14.70
2022-10-21T11:35:07.851Z,14.70
2022-10-21T11:37:54.509Z,14.70
2022-10-21T11:40:21.337Z,14.80
2022-10-21T11:42:51.868Z,14.80
2022-10-21T11:45:33.400Z,15.00
2022-10-21T11:48:15.537Z,15.20
2022-10-21T11:51:14.164Z,15.20
2022-10-21T11:54:04.340Z,15.20
2022-10-21T11:56:50.026Z,15.30
2022-10-21T11:59:47.693Z,15.30
2022-10-21T12:02:25.775Z,15.40
2022-10-21T12:05:31.371Z,15.50
2022-10-21T12:08:09.138Z,15.50
2022-10-21T12:10:40.033Z,15.80
2022-10-21T12:13:29.657Z,16.00
2022-10-21T12:16:00.121Z,16.00
2022-10-21T12:18:29.385Z,16.00
2022-10-21T12:20:58.414Z,16.00
2022-10-21T12:23:29.095Z,15.80
2022-10-21T12:26:22.371Z,15.70
2022-10-21T12:29:01.138Z,15.50
2022-10-21T12:31:39.823Z,15.40
2022-10-21T12:34:10.573Z,15.20
2022-10-21T12:36:38.283Z,15.10
2022-10-21T12:39:12.560Z,14.90
2022-10-21T12:41:40.663Z,14.90
2022-10-21T12:44:21.644Z,14.80
2022-10-21T12:46:54.335Z,14.80
2022-10-21T12:49:33.621Z,14.80
2022-10-21T12:52:03.638Z,14.70
2022-10-21T12:54:58.057Z,14.60
2022-10-21T12:57:35.080Z,14.70
2022-10-21T13:03:05.582Z,14.50
2022-10-21T13:05:38.439Z,14.50
2022-10-21T13:08:27.074Z,14.50
2022-10-21T13:11:05.821Z,14.40
2022-10-21T13:13:37.392Z,14.40
2022-10-21T13:16:24.413Z,14.50
2022-10-21T13:18:55.780Z,14.40
2022-10-21T13:21:30.032Z,14.30
2022-10-21T13:24:06.263Z,14.20
2022-10-21T13:26:33.173Z,14.10
2022-10-21T13:29:05.743Z,14.20
2022-10-21T13:31:32.712Z,14.20
2022-10-21T13:34:00.321Z,14.10
2022-10-21T13:36:39.287Z,14.10
2022-10-21T13:39:21.898Z,14.20
2022-10-21T13:41:58.487Z,14.30
2022-10-21T13:44:32.999Z,14.40
2022-10-21T13:47:28.015Z,14.40
2022-10-21T13:49:57.842Z,14.50
2022-10-21T13:52:29.180Z,14.40
2022-10-21T13:55:01.187Z,14.30
2022-10-21T13:57:32.975Z,14.50
2022-10-21T14:00:18.586Z,14.50
2022-10-21T14:02:50.653Z,14.40
2022-10-21T14:05:26.839Z,14.50
2022-10-21T14:07:53.964Z,14.40
2022-10-21T14:10:21.979Z,14.30
2022-10-21T14:12:49.443Z,14.20
2022-10-21T14:15:23.955Z,14.30
2022-10-21T14:17:55.329Z,14.30
2022-10-21T14:20:35.046Z,14.20
2022-10-21T14:23:08.301Z,14.10
2022-10-21T14:25:35.482Z,14.10
2022-10-21T14:28:04.275Z,13.80
2022-10-21T14:30:33.833Z,13.90
2022-10-21T14:33:03.776Z,13.80
2022-10-21T14:35:31.260Z,13.80
2022-10-21T14:38:01.168Z,13.70
2022-10-21T14:40:37.565Z,13.70
2022-10-21T14:43:32.287Z,13.60
2022-10-21T14:45:59.077Z,13.60
2022-10-21T14:48:31.380Z,13.60
2022-10-21T14:51:22.925Z,13.60
2022-10-21T14:53:59.841Z,13.50
2022-10-21T14:56:33.872Z,13.50
2022-10-21T14:59:05.946Z,13.50
2022-10-21T15:01:32.806Z,13.60
2022-10-21T15:04:00.884Z,13.50
2022-10-21T15:06:31.484Z,13.60
2022-10-21T15:09:10.272Z,13.60
2022-10-21T15:11:43.116Z,13.50
2022-10-21T15:14:12.863Z,13.50
2022-10-21T15:16:52.424Z,13.40
2022-10-21T15:19:23.947Z,13.40
2022-10-21T15:22:01.176Z,13.30
2022-10-21T15:24:35.780Z,13.10
2022-10-21T15:27:03.603Z,13.10
2022-10-21T15:29:43.085Z,13.20
2022-10-21T15:32:12.233Z,13.10
2022-10-21T15:34:38.971Z,13.30
2022-10-21T15:37:07.376Z,13.20
2022-10-21T15:39:34.239Z,13.20
2022-10-21T15:42:02.016Z,13.30
2022-10-21T15:44:30.666Z,13.20
2022-10-21T15:47:00.950Z,13.20
2022-10-21T15:49:32.640Z,13.10
2022-10-21T15:51:59.577Z,13.20
2022-10-21T15:54:26.409Z,13.10
2022-10-21T15:56:54.570Z,13.10
2022-10-21T15:59:27.019Z,12.90
2022-10-21T16:01:54.919Z,12.90
2022-10-21T16:04:22.566Z,12.90
2022-10-21T16:06:50.192Z,13.00
2022-10-21T16:09:28.111Z,12.90
2022-10-21T16:12:00.146Z,12.90
2022-10-21T16:14:30.154Z,12.90
2022-10-21T16:16:58.592Z,12.80
2022-10-21T16:19:25.589Z,12.90
2022-10-21T16:21:52.272Z,12.80
2022-10-21T16:24:19.202Z,12.80
2022-10-21T16:26:49.058Z,12.90
2022-10-21T16:29:21.308Z,12.80
2022-10-21T16:31:48.458Z,12.70
2022-10-21T16:34:15.318Z,12.80
2022-10-21T16:36:42.535Z,12.80
2022-10-21T16:39:18.276Z,12.90
2022-10-21T16:41:45.107Z,13.00
2022-10-21T16:44:11.903Z,13.10
2022-10-21T16:46:53.754Z,13.10
2022-10-21T16:49:23.273Z,12.90
2022-10-21T16:51:52.536Z,12.90
2022-10-21T16:54:20.378Z,13.00
2022-10-21T16:56:47.282Z,12.90
2022-10-21T16:59:14.033Z,12.90
2022-10-21T17:01:41.031Z,12.90
2022-10-21T17:04:07.726Z,12.80
2022-10-21T17:06:34.511Z,12.70
2022-10-21T17:09:01.349Z,12.80
2022-10-21T17:11:33.085Z,12.80
2022-10-21T17:14:01.186Z,12.70
2022-10-21T17:16:28.021Z,12.70
2022-10-21T17:18:54.805Z,12.80
2022-10-21T17:21:27.586Z,12.70
2022-10-21T17:23:55.649Z,12.70
2022-10-21T17:26:22.878Z,12.70
2022-10-21T17:28:50.407Z,12.70
2022-10-21T17:31:19.377Z,12.80
2022-10-21T17:33:47.190Z,12.90
2022-10-21T17:36:14.787Z,12.80
2022-10-21T17:38:42.071Z,12.80
2022-10-21T17:41:10.327Z,12.70
2022-10-21T17:43:37.599Z,12.80
2022-10-21T17:46:05.230Z,12.90
2022-10-21T17:48:32.593Z,13.00
2022-10-21T17:51:01.833Z,12.90
2022-10-21T17:53:29.754Z,12.90
2022-10-21T17:56:02.094Z,12.90
2022-10-21T17:58:29.450Z,13.00
2022-10-21T18:00:57.024Z,13.10
2022-10-21T18:03:25.221Z,13.00
2022-10-21T18:05:52.335Z,13.00
2022-10-21T18:08:19.487Z,13.10
2022-10-21T18:10:55.314Z,13.10
2022-10-21T18:13:23.712Z,13.20
2022-10-21T18:15:51.025Z,13.10
2022-10-21T18:18:18.419Z,13.20
2022-10-21T18:20:45.452Z,13.20
2022-10-21T18:23:12.673Z,13.10
2022-10-21T18:25:40.335Z,13.30
2022-10-21T18:28:07.165Z,13.10
2022-10-21T18:30:35.473Z,13.10
2022-10-21T18:33:02.204Z,13.10
2022-10-21T18:35:29.884Z,13.10
2022-10-21T18:37:57.293Z,13.00
2022-10-21T18:40:24.128Z,13.00
2022-10-21T18:42:50.863Z,13.00
2022-10-21T18:45:17.626Z,12.90
2022-10-21T18:47:50.330Z,13.00
2022-10-21T18:50:17.466Z,13.10
2022-10-21T18:52:44.315Z,13.00
2022-10-21T18:55:11.028Z,13.00
2022-10-21T18:57:38.222Z,13.10
2022-10-21T19:00:06.321Z,13.10
2022-10-21T19:02:33.126Z,13.10
2022-10-21T19:05:02.022Z,13.00
2022-10-21T19:07:29.311Z,13.00
2022-10-21T19:09:56.335Z,13.00
2022-10-21T19:12:23.709Z,13.10
2022-10-21T19:14:50.861Z,13.20
2022-10-21T19:17:19.043Z,13.20
2022-10-21T19:19:45.755Z,13.20
2022-10-21T19:22:14.602Z,13.30
2022-10-21T19:24:41.343Z,13.30
2022-10-21T19:27:08.071Z,13.30
2022-10-21T19:29:34.993Z,13.30
2022-10-21T19:32:02.203Z,13.20
2022-10-21T19:34:28.938Z,13.20
2022-10-21T19:36:55.755Z,13.20
2022-10-21T19:39:22.456Z,13.20
2022-10-21T19:41:49.171Z,13.20
2022-10-21T19:44:15.876Z,13.10
2022-10-21T19:46:42.725Z,13.10
2022-10-21T19:49:11.602Z,13.20
2022-10-21T19:51:38.776Z,13.00
2022-10-21T19:54:07.240Z,12.90
2022-10-21T19:56:34.721Z,12.90
2022-10-21T19:59:02.719Z,12.90
2022-10-21T20:01:30.376Z,13.00
2022-10-21T20:03:57.341Z,13.00
2022-10-21T20:06:30.041Z,13.10
2022-10-21T20:08:59.507Z,13.20
2022-10-21T20:11:27.649Z,13.20
2022-10-21T20:13:55.266Z,13.10
2022-10-21T20:16:31.309Z,13.10
2022-10-21T20:18:59.856Z,13.20
2022-10-21T20:21:27.286Z,13.20
2022-10-21T20:23:54.219Z,13.30
2022-10-21T20:26:21.147Z,13.30
2022-10-21T20:28:47.977Z,13.30
2022-10-21T20:31:15.915Z,13.30
2022-10-21T20:33:50.410Z,13.30
2022-10-21T20:36:26.811Z,13.30
2022-10-21T20:38:56.029Z,13.30
2022-10-21T20:41:28.318Z,13.30
2022-10-21T20:43:55.071Z,13.20
2022-10-21T20:46:24.119Z,13.10
2022-10-21T20:48:52.326Z,13.10
2022-10-21T20:51:28.975Z,13.00
2022-10-21T20:54:01.213Z,12.90
2022-10-21T20:56:30.290Z,12.80
2022-10-21T20:58:57.441Z,12.80
2022-10-21T21:01:26.829Z,12.70
2022-10-21T21:03:55.944Z,12.70
2022-10-21T21:06:23.256Z,12.60
2022-10-21T21:09:14.653Z,12.60
2022-10-21T21:11:37.141Z,12.50
2022-10-21T21:14:03.915Z,12.60
2022-10-21T21:16:30.909Z,12.50
2022-10-21T21:19:03.413Z,12.40
2022-10-21T21:21:32.104Z,12.30
2022-10-21T21:23:59.095Z,12.30
2022-10-21T21:26:28.389Z,12.30
2022-10-21T21:28:55.653Z,12.40
2022-10-21T21:31:24.803Z,12.40
2022-10-21T21:33:51.730Z,12.40
2022-10-21T21:36:20.299Z,12.20
2022-10-21T21:38:48.085Z,12.10
2022-10-21T21:41:16.633Z,12.10
2022-10-21T21:43:48.653Z,12.20
2022-10-21T21:46:22.726Z,12.20
2022-10-21T21:49:03.879Z,12.30
2022-10-21T21:51:33.937Z,12.30
2022-10-21T21:54:00.677Z,12.30
2022-10-21T21:56:28.138Z,12.10
2022-10-21T21:58:57.600Z,12.10
2022-10-21T22:01:27.726Z,12.10
2022-10-21T22:03:55.452Z,12.10
2022-10-21T22:08:56.349Z,12.20
2022-10-21T22:11:25.465Z,12.20
2022-10-21T22:13:52.785Z,12.20
2022-10-21T22:16:24.378Z,12.20
2022-10-21T22:18:51.385Z,12.20
2022-10-21T22:21:18.657Z,12.10
2022-10-21T22:23:46.541Z,12.10
2022-10-21T22:26:14.233Z,12.10
2022-10-21T22:28:41.910Z,12.10
2022-10-21T22:31:11.646Z,12.20
2022-10-21T22:33:38.851Z,12.10
2022-10-21T22:36:06.216Z,12.20
2022-10-21T22:38:33.075Z,12.20
2022-10-21T22:41:02.192Z,12.10
2022-10-21T22:43:29.776Z,12.20
2022-10-21T22:46:05.359Z,12.20
2022-10-21T22:48:42.195Z,12.20
2022-10-21T22:51:08.916Z,12.20
2022-10-21T22:53:36.541Z,12.20
2022-10-21T22:56:03.509Z,12.20
2022-10-21T22:58:30.255Z,12.20
2022-10-21T23:00:57.375Z,12.10
2022-10-21T23:03:24.517Z,12.10
2022-10-21T23:05:51.399Z,12.10
2022-10-21T23:08:18.652Z,12.10
2022-10-21T23:10:48.738Z,12.10
2022-10-21T23:13:15.577Z,12.10
2022-10-21T23:15:42.393Z,12.10
2022-10-21T23:18:09.288Z,12.10
2022-10-21T23:20:36.682Z,12.10
2022-10-21T23:23:04.287Z,12.10
2022-10-21T23:25:31.022Z,12.10
2022-10-21T23:27:57.746Z,12.10
2022-10-21T23:30:24.856Z,12.00
2022-10-21T23:32:51.803Z,12.00
2022-10-21T23:35:19.518Z,12.10
2022-10-21T23:37:46.422Z,12.10
2022-10-21T23:40:13.140Z,12.00
2022-10-21T23:42:42.793Z,11.90
2022-10-21T23:45:11.332Z,11.90
2022-10-21T23:47:39.667Z,11.80
2022-10-21T23:50:08.300Z,11.70
2022-10-21T23:52:35.641Z,11.70
2022-10-21T23:55:02.354Z,11.70
2022-10-21T23:57:29.149Z,11.70
2022-10-21T23:59:55.847Z,11.60
